sensor_id;sensor_type;location;lat;lon;timestamp;P1;durP1;ratioP1;P2;durP2;ratioP2
28086;SDS011;15392;48.912;8.380;2023-03-01T00:01:20;4.43;;;4.22;;
28086;SDS011;15392;48.912;8.380;2023-03-01T00:03:51;3.92;;;3.78;;
28086;SDS011;15392;48.912;8.380;2023-03-01T00:06:18;4.20;;;4.00;;
28086;SDS011;15392;48.912;8.380;2023-03-01T00:08:45;3.92;;;3.72;;
28086;SDS011;15392;48.912;8.380;2023-03-01T00:13:44;4.35;;;4.13;;
28086;SDS011;15392;48.912;8.380;2023-03-01T00:16:13;3.95;;;3.75;;
28086;SDS011;15392;48.912;8.380;2023-03-01T00:18:43;4.07;;;3.88;;
28086;SDS011;15392;48.912;8.380;2023-03-01T00:21:09;3.70;;;3.55;;
28086;SDS011;15392;48.912;8.380;2023-03-01T00:23:35;4.07;;;3.88;;
28086;SDS011;15392;48.912;8.380;2023-03-01T00:26:02;4.00;;;3.80;;
28086;SDS011;15392;48.912;8.380;2023-03-01T00:28:33;3.78;;;3.58;;
28086;SDS011;15392;48.912;8.380;2023-03-01T00:31:03;3.80;;;3.60;;
28086;SDS011;15392;48.912;8.380;2023-03-01T00:33:31;4.13;;;3.72;;
28086;SDS011;15392;48.912;8.380;2023-03-01T00:36:00;3.60;;;3.50;;
28086;SDS011;15392;48.912;8.380;2023-03-01T00:38:26;3.53;;;3.33;;
28086;SDS011;15392;48.912;8.380;2023-03-01T00:40:52;4.00;;;3.80;;
28086;SDS011;15392;48.912;8.380;2023-03-01T00:43:18;4.28;;;4.07;;
28086;SDS011;15392;48.912;8.380;2023-03-01T00:45:44;3.53;;;3.33;;
28086;SDS011;15392;48.912;8.380;2023-03-01T00:48:10;3.90;;;3.70;;
28086;SDS011;15392;48.912;8.380;2023-03-01T00:50:36;3.90;;;3.70;;
28086;SDS011;15392;48.912;8.380;2023-03-01T00:53:01;3.63;;;3.53;;
28086;SDS011;15392;48.912;8.380;2023-03-01T00:55:27;4.05;;;3.85;;
28086;SDS011;15392;48.912;8.380;2023-03-01T00:57:53;3.53;;;3.33;;
28086;SDS011;15392;48.912;8.380;2023-03-01T01:00:19;3.53;;;3.40;;
28086;SDS011;15392;48.912;8.380;2023-03-01T01:02:45;3.70;;;3.53;;
28086;SDS011;15392;48.912;8.380;2023-03-01T01:05:12;3.90;;;3.70;;
28086;SDS011;15392;48.912;8.380;2023-03-01T01:07:38;3.90;;;3.70;;
28086;SDS011;15392;48.912;8.380;2023-03-01T01:10:04;4.20;;;4.00;;
28086;SDS011;15392;48.912;8.380;2023-03-01T01:12:31;3.75;;;3.58;;
28086;SDS011;15392;48.912;8.380;2023-03-01T01:14:57;3.88;;;3.67;;
28086;SDS011;15392;48.912;8.380;2023-03-01T01:17:23;3.83;;;3.63;;
28086;SDS011;15392;48.912;8.380;2023-03-01T01:19:49;3.80;;;3.63;;
28086;SDS011;15392;48.912;8.380;2023-03-01T01:22:15;3.30;;;3.20;;
28086;SDS011;15392;48.912;8.380;2023-03-01T01:24:40;3.83;;;3.63;;
28086;SDS011;15392;48.912;8.380;2023-03-01T01:27:06;3.78;;;3.58;;
28086;SDS011;15392;48.912;8.380;2023-03-01T01:29:32;4.20;;;4.00;;
28086;SDS011;15392;48.912;8.380;2023-03-01T01:31:58;4.07;;;3.88;;
28086;SDS011;15392;48.912;8.380;2023-03-01T01:34:23;4.18;;;3.97;;
28086;SDS011;15392;48.912;8.380;2023-03-01T01:36:50;3.78;;;3.58;;
28086;SDS011;15392;48.912;8.380;2023-03-01T01:39:21;3.80;;;3.60;;
28086;SDS011;15392;48.912;8.380;2023-03-01T01:41:47;4.13;;;3.92;;
28086;SDS011;15392;48.912;8.380;2023-03-01T01:44:18;4.10;;;3.90;;
28086;SDS011;15392;48.912;8.380;2023-03-01T01:49:47;3.50;;;3.40;;
28086;SDS011;15392;48.912;8.380;2023-03-01T01:54:50;3.25;;;3.15;;
28086;SDS011;15392;48.912;8.380;2023-03-01T01:57:32;3.38;;;3.28;;
28086;SDS011;15392;48.912;8.380;2023-03-01T02:00:14;4.00;;;3.80;;
28086;SDS011;15392;48.912;8.380;2023-03-01T02:03:10;3.97;;;3.78;;
28086;SDS011;15392;48.912;8.380;2023-03-01T02:08:32;3.40;;;3.30;;
28086;SDS011;15392;48.912;8.380;2023-03-01T02:11:03;4.05;;;3.85;;
28086;SDS011;15392;48.912;8.380;2023-03-01T02:13:30;4.30;;;4.10;;
28086;SDS011;15392;48.912;8.380;2023-03-01T02:15:57;3.78;;;3.65;;
28086;SDS011;15392;48.912;8.380;2023-03-01T02:18:25;3.58;;;3.47;;
28086;SDS011;15392;48.912;8.380;2023-03-01T02:21:10;3.90;;;3.70;;
28086;SDS011;15392;48.912;8.380;2023-03-01T02:23:44;3.50;;;3.40;;
28086;SDS011;15392;48.912;8.380;2023-03-01T02:26:20;3.85;;;3.65;;
28086;SDS011;15392;48.912;8.380;2023-03-01T02:28:53;3.72;;;3.53;;
28086;SDS011;15392;48.912;8.380;2023-03-01T02:31:19;4.05;;;3.85;;
28086;SDS011;15392;48.912;8.380;2023-03-01T02:34:04;3.95;;;3.75;;
28086;SDS011;15392;48.912;8.380;2023-03-01T02:36:34;3.92;;;3.78;;
28086;SDS011;15392;48.912;8.380;2023-03-01T02:39:04;4.00;;;3.80;;
28086;SDS011;15392;48.912;8.380;2023-03-01T02:41:34;3.88;;;3.67;;
28086;SDS011;15392;48.912;8.380;2023-03-01T02:44:02;3.58;;;3.47;;
28086;SDS011;15392;48.912;8.380;2023-03-01T02:46:29;3.60;;;3.40;;
28086;SDS011;15392;48.912;8.380;2023-03-01T02:48:56;3.80;;;3.60;;
28086;SDS011;15392;48.912;8.380;2023-03-01T02:54:12;3.97;;;3.88;;
28086;SDS011;15392;48.912;8.380;2023-03-01T02:56:45;4.28;;;4.07;;
28086;SDS011;15392;48.912;8.380;2023-03-01T02:59:16;3.83;;;3.63;;
28086;SDS011;15392;48.912;8.380;2023-03-01T03:01:43;3.70;;;3.50;;
28086;SDS011;15392;48.912;8.380;2023-03-01T03:04:10;3.88;;;3.67;;
28086;SDS011;15392;48.912;8.380;2023-03-01T03:06:46;4.25;;;4.05;;
28086;SDS011;15392;48.912;8.380;2023-03-01T03:09:15;4.18;;;3.97;;
28086;SDS011;15392;48.912;8.380;2023-03-01T03:11:42;3.95;;;3.75;;
28086;SDS011;15392;48.912;8.380;2023-03-01T03:14:09;3.90;;;3.70;;
28086;SDS011;15392;48.912;8.380;2023-03-01T03:16:40;4.03;;;3.83;;
28086;SDS011;15392;48.912;8.380;2023-03-01T03:19:11;4.40;;;4.20;;
28086;SDS011;15392;48.912;8.380;2023-03-01T03:21:37;3.85;;;3.65;;
28086;SDS011;15392;48.912;8.380;2023-03-01T03:24:03;4.53;;;4.32;;
28086;SDS011;15392;48.912;8.380;2023-03-01T03:26:30;4.18;;;3.97;;
28086;SDS011;15392;48.912;8.380;2023-03-01T03:28:57;4.10;;;3.90;;
28086;SDS011;15392;48.912;8.380;2023-03-01T03:31:23;4.43;;;4.22;;
28086;SDS011;15392;48.912;8.380;2023-03-01T03:33:49;4.15;;;3.95;;
28086;SDS011;15392;48.912;8.380;2023-03-01T03:36:19;4.38;;;4.18;;
28086;SDS011;15392;48.912;8.380;2023-03-01T03:38:47;4.13;;;3.88;;
28086;SDS011;15392;48.912;8.380;2023-03-01T03:41:14;4.53;;;4.32;;
28086;SDS011;15392;48.912;8.380;2023-03-01T03:43:40;4.32;;;4.13;;
28086;SDS011;15392;48.912;8.380;2023-03-01T03:46:08;4.55;;;4.35;;
28086;SDS011;15392;48.912;8.380;2023-03-01T03:48:37;4.40;;;4.20;;
28086;SDS011;15392;48.912;8.380;2023-03-01T03:51:15;4.47;;;4.18;;
28086;SDS011;15392;48.912;8.380;2023-03-01T03:53:42;4.68;;;4.47;;
28086;SDS011;15392;48.912;8.380;2023-03-01T03:56:09;4.93;;;4.63;;
28086;SDS011;15392;48.912;8.380;2023-03-01T03:58:36;4.32;;;4.13;;
28086;SDS011;15392;48.912;8.380;2023-03-01T04:01:02;4.47;;;4.28;;
28086;SDS011;15392;48.912;8.380;2023-03-01T04:03:29;4.28;;;4.07;;
28086;SDS011;15392;48.912;8.380;2023-03-01T04:05:57;4.57;;;4.38;;
28086;SDS011;15392;48.912;8.380;2023-03-01T04:08:24;4.45;;;4.25;;
28086;SDS011;15392;48.912;8.380;2023-03-01T04:10:51;4.57;;;4.38;;
28086;SDS011;15392;48.912;8.380;2023-03-01T04:13:23;4.40;;;4.20;;
28086;SDS011;15392;48.912;8.380;2023-03-01T04:15:53;4.50;;;4.30;;
28086;SDS011;15392;48.912;8.380;2023-03-01T04:18:20;4.85;;;4.65;;
28086;SDS011;15392;48.912;8.380;2023-03-01T04:20:48;4.45;;;4.25;;
28086;SDS011;15392;48.912;8.380;2023-03-01T04:23:18;5.03;;;4.72;;
28086;SDS011;15392;48.912;8.380;2023-03-01T04:25:53;4.55;;;4.35;;
28086;SDS011;15392;48.912;8.380;2023-03-01T04:28:27;4.55;;;4.35;;
28086;SDS011;15392;48.912;8.380;2023-03-01T04:31:01;4.35;;;4.15;;
28086;SDS011;15392;48.912;8.380;2023-03-01T04:33:45;4.88;;;4.57;;
28086;SDS011;15392;48.912;8.380;2023-03-01T04:36:16;4.93;;;4.72;;
28086;SDS011;15392;48.912;8.380;2023-03-01T04:38:44;4.72;;;4.53;;
28086;SDS011;15392;48.912;8.380;2023-03-01T04:41:12;4.72;;;4.53;;
28086;SDS011;15392;48.912;8.380;2023-03-01T04:43:40;4.75;;;4.45;;
28086;SDS011;15392;48.912;8.380;2023-03-01T04:46:07;4.43;;;4.22;;
28086;SDS011;15392;48.912;8.380;2023-03-01T04:48:37;4.82;;;4.53;;
28086;SDS011;15392;48.912;8.380;2023-03-01T04:51:05;4.90;;;4.70;;
28086;SDS011;15392;48.912;8.380;2023-03-01T04:53:31;4.82;;;4.63;;
28086;SDS011;15392;48.912;8.380;2023-03-01T04:55:58;4.93;;;4.70;;
28086;SDS011;15392;48.912;8.380;2023-03-01T04:58:27;5.05;;;4.70;;
28086;SDS011;15392;48.912;8.380;2023-03-01T05:00:53;4.47;;;4.28;;
28086;SDS011;15392;48.912;8.380;2023-03-01T05:03:20;4.93;;;4.68;;
28086;SDS011;15392;48.912;8.380;2023-03-01T05:05:48;4.90;;;4.60;;
28086;SDS011;15392;48.912;8.380;2023-03-01T05:08:16;4.57;;;4.38;;
28086;SDS011;15392;48.912;8.380;2023-03-01T05:10:49;4.95;;;4.75;;
28086;SDS011;15392;48.912;8.380;2023-03-01T05:13:17;4.85;;;4.55;;
28086;SDS011;15392;48.912;8.380;2023-03-01T05:15:58;5.07;;;4.78;;
28086;SDS011;15392;48.912;8.380;2023-03-01T05:18:26;4.90;;;4.70;;
28086;SDS011;15392;48.912;8.380;2023-03-01T05:20:55;5.10;;;4.80;;
28086;SDS011;15392;48.912;8.380;2023-03-01T05:23:29;4.75;;;4.53;;
28086;SDS011;15392;48.912;8.380;2023-03-01T05:25:59;4.43;;;4.22;;
28086;SDS011;15392;48.912;8.380;2023-03-01T05:28:27;5.00;;;4.75;;
28086;SDS011;15392;48.912;8.380;2023-03-01T05:30:54;4.63;;;4.43;;
28086;SDS011;15392;48.912;8.380;2023-03-01T05:33:20;4.65;;;4.45;;
28086;SDS011;15392;48.912;8.380;2023-03-01T05:35:47;5.05;;;4.75;;
28086;SDS011;15392;48.912;8.380;2023-03-01T05:38:14;4.82;;;4.63;;
28086;SDS011;15392;48.912;8.380;2023-03-01T05:40:41;5.25;;;5.05;;
28086;SDS011;15392;48.912;8.380;2023-03-01T05:43:09;5.25;;;4.95;;
28086;SDS011;15392;48.912;8.380;2023-03-01T05:45:36;4.53;;;4.32;;
28086;SDS011;15392;48.912;8.380;2023-03-01T05:48:03;4.63;;;4.43;;
28086;SDS011;15392;48.912;8.380;2023-03-01T05:50:35;4.97;;;4.75;;
28086;SDS011;15392;48.912;8.380;2023-03-01T05:53:09;4.65;;;4.45;;
28086;SDS011;15392;48.912;8.380;2023-03-01T05:55:41;5.68;;;5.38;;
28086;SDS011;15392;48.912;8.380;2023-03-01T05:58:12;4.75;;;4.55;;
28086;SDS011;15392;48.912;8.380;2023-03-01T06:00:40;4.95;;;4.75;;
28086;SDS011;15392;48.912;8.380;2023-03-01T06:03:09;5.22;;;4.93;;
28086;SDS011;15392;48.912;8.380;2023-03-01T06:05:37;4.70;;;4.50;;
28086;SDS011;15392;48.912;8.380;2023-03-01T06:08:04;5.40;;;5.10;;
28086;SDS011;15392;48.912;8.380;2023-03-01T06:10:30;6.20;;;5.90;;
28086;SDS011;15392;48.912;8.380;2023-03-01T06:12:57;4.93;;;4.72;;
28086;SDS011;15392;48.912;8.380;2023-03-01T06:15:23;5.45;;;5.20;;
28086;SDS011;15392;48.912;8.380;2023-03-01T06:17:50;5.20;;;5.00;;
28086;SDS011;15392;48.912;8.380;2023-03-01T06:20:20;5.10;;;4.90;;
28086;SDS011;15392;48.912;8.380;2023-03-01T06:22:49;5.32;;;5.03;;
28086;SDS011;15392;48.912;8.380;2023-03-01T06:25:16;5.40;;;5.10;;
28086;SDS011;15392;48.912;8.380;2023-03-01T06:27:45;5.55;;;5.35;;
28086;SDS011;15392;48.912;8.380;2023-03-01T06:30:14;5.25;;;5.05;;
28086;SDS011;15392;48.912;8.380;2023-03-01T06:32:42;5.53;;;5.22;;
28086;SDS011;15392;48.912;8.380;2023-03-01T06:35:12;4.82;;;4.63;;
28086;SDS011;15392;48.912;8.380;2023-03-01T06:37:42;4.97;;;4.68;;
28086;SDS011;15392;48.912;8.380;2023-03-01T06:40:08;5.93;;;5.63;;
28086;SDS011;15392;48.912;8.380;2023-03-01T06:42:36;5.82;;;5.53;;
28086;SDS011;15392;48.912;8.380;2023-03-01T06:45:04;5.43;;;5.15;;
28086;SDS011;15392;48.912;8.380;2023-03-01T06:47:32;5.70;;;5.40;;
28086;SDS011;15392;48.912;8.380;2023-03-01T06:49:59;5.65;;;5.35;;
28086;SDS011;15392;48.912;8.380;2023-03-01T06:52:26;5.80;;;5.40;;
28086;SDS011;15392;48.912;8.380;2023-03-01T06:54:51;5.22;;;4.93;;
28086;SDS011;15392;48.912;8.380;2023-03-01T06:57:17;5.60;;;5.30;;
28086;SDS011;15392;48.912;8.380;2023-03-01T06:59:43;5.78;;;5.57;;
28086;SDS011;15392;48.912;8.380;2023-03-01T07:02:12;5.53;;;5.22;;
28086;SDS011;15392;48.912;8.380;2023-03-01T07:04:39;5.85;;;5.55;;
28086;SDS011;15392;48.912;8.380;2023-03-01T07:07:06;5.78;;;5.47;;
28086;SDS011;15392;48.912;8.380;2023-03-01T07:09:31;5.65;;;5.32;;
28086;SDS011;15392;48.912;8.380;2023-03-01T07:11:57;5.75;;;5.45;;
28086;SDS011;15392;48.912;8.380;2023-03-01T07:14:23;6.00;;;5.70;;
28086;SDS011;15392;48.912;8.380;2023-03-01T07:16:51;6.03;;;5.72;;
28086;SDS011;15392;48.912;8.380;2023-03-01T07:19:17;5.75;;;5.45;;
28086;SDS011;15392;48.912;8.380;2023-03-01T07:21:43;6.35;;;6.05;;
28086;SDS011;15392;48.912;8.380;2023-03-01T07:24:09;6.00;;;5.65;;
28086;SDS011;15392;48.912;8.380;2023-03-01T07:26:35;5.70;;;5.35;;
28086;SDS011;15392;48.912;8.380;2023-03-01T07:29:02;5.90;;;5.60;;
28086;SDS011;15392;48.912;8.380;2023-03-01T07:31:29;6.28;;;5.97;;
28086;SDS011;15392;48.912;8.380;2023-03-01T07:33:55;6.28;;;5.97;;
28086;SDS011;15392;48.912;8.380;2023-03-01T07:36:21;5.57;;;5.28;;
28086;SDS011;15392;48.912;8.380;2023-03-01T07:38:48;6.85;;;6.45;;
28086;SDS011;15392;48.912;8.380;2023-03-01T07:41:14;6.32;;;5.97;;
28086;SDS011;15392;48.912;8.380;2023-03-01T07:43:40;6.38;;;6.07;;
28086;SDS011;15392;48.912;8.380;2023-03-01T07:46:06;6.63;;;6.22;;
28086;SDS011;15392;48.912;8.380;2023-03-01T07:48:32;6.07;;;5.78;;
28086;SDS011;15392;48.912;8.380;2023-03-01T07:50:58;5.88;;;5.57;;
28086;SDS011;15392;48.912;8.380;2023-03-01T07:53:26;6.07;;;5.78;;
28086;SDS011;15392;48.912;8.380;2023-03-01T07:56:09;5.85;;;5.55;;
28086;SDS011;15392;48.912;8.380;2023-03-01T07:58:38;5.72;;;5.43;;
28086;SDS011;15392;48.912;8.380;2023-03-01T08:01:06;6.10;;;5.80;;
28086;SDS011;15392;48.912;8.380;2023-03-01T08:03:35;6.63;;;6.32;;
28086;SDS011;15392;48.912;8.380;2023-03-01T08:06:03;6.13;;;5.82;;
28086;SDS011;15392;48.912;8.380;2023-03-01T08:08:31;6.13;;;5.82;;
28086;SDS011;15392;48.912;8.380;2023-03-01T08:10:58;6.05;;;5.65;;
28086;SDS011;15392;48.912;8.380;2023-03-01T08:13:26;6.38;;;6.05;;
28086;SDS011;15392;48.912;8.380;2023-03-01T08:15:52;6.60;;;6.22;;
28086;SDS011;15392;48.912;8.380;2023-03-01T08:18:18;6.07;;;5.78;;
28086;SDS011;15392;48.912;8.380;2023-03-01T08:20:45;6.40;;;6.10;;
28086;SDS011;15392;48.912;8.380;2023-03-01T08:23:12;5.78;;;5.50;;
28086;SDS011;15392;48.912;8.380;2023-03-01T08:25:38;6.50;;;6.20;;
28086;SDS011;15392;48.912;8.380;2023-03-01T08:28:04;5.80;;;5.50;;
28086;SDS011;15392;48.912;8.380;2023-03-01T08:30:30;6.40;;;6.10;;
28086;SDS011;15392;48.912;8.380;2023-03-01T08:32:56;6.13;;;5.82;;
28086;SDS011;15392;48.912;8.380;2023-03-01T08:35:22;6.38;;;6.07;;
28086;SDS011;15392;48.912;8.380;2023-03-01T08:37:48;6.30;;;6.00;;
28086;SDS011;15392;48.912;8.380;2023-03-01T08:40:14;6.28;;;5.97;;
28086;SDS011;15392;48.912;8.380;2023-03-01T08:42:40;6.60;;;6.30;;
28086;SDS011;15392;48.912;8.380;2023-03-01T08:45:10;6.22;;;5.93;;
28086;SDS011;15392;48.912;8.380;2023-03-01T08:47:36;6.20;;;5.90;;
28086;SDS011;15392;48.912;8.380;2023-03-01T08:50:03;6.40;;;6.00;;
28086;SDS011;15392;48.912;8.380;2023-03-01T08:52:29;6.13;;;5.82;;
28086;SDS011;15392;48.912;8.380;2023-03-01T08:54:57;6.70;;;6.30;;
28086;SDS011;15392;48.912;8.380;2023-03-01T08:57:23;6.45;;;6.05;;
28086;SDS011;15392;48.912;8.380;2023-03-01T08:59:48;7.25;;;6.85;;
28086;SDS011;15392;48.912;8.380;2023-03-01T09:02:15;7.00;;;6.63;;
28086;SDS011;15392;48.912;8.380;2023-03-01T09:04:42;6.00;;;5.70;;
28086;SDS011;15392;48.912;8.380;2023-03-01T09:07:09;6.35;;;5.95;;
28086;SDS011;15392;48.912;8.380;2023-03-01T09:09:36;6.65;;;6.25;;
28086;SDS011;15392;48.912;8.380;2023-03-01T09:12:02;6.38;;;5.97;;
28086;SDS011;15392;48.912;8.380;2023-03-01T09:14:29;6.65;;;6.35;;
28086;SDS011;15392;48.912;8.380;2023-03-01T09:16:55;6.38;;;6.05;;
28086;SDS011;15392;48.912;8.380;2023-03-01T09:19:21;6.18;;;5.60;;
28086;SDS011;15392;48.912;8.380;2023-03-01T09:21:46;6.30;;;5.90;;
28086;SDS011;15392;48.912;8.380;2023-03-01T09:24:19;6.05;;;5.75;;
28086;SDS011;15392;48.912;8.380;2023-03-01T09:26:47;6.50;;;6.20;;
28086;SDS011;15392;48.912;8.380;2023-03-01T09:29:13;6.70;;;6.40;;
28086;SDS011;15392;48.912;8.380;2023-03-01T09:31:40;6.38;;;6.07;;
28086;SDS011;15392;48.912;8.380;2023-03-01T09:34:07;6.35;;;6.05;;
28086;SDS011;15392;48.912;8.380;2023-03-01T09:36:34;6.45;;;6.05;;
28086;SDS011;15392;48.912;8.380;2023-03-01T09:39:00;6.45;;;6.07;;
28086;SDS011;15392;48.912;8.380;2023-03-01T09:44:49;6.45;;;6.05;;
28086;SDS011;15392;48.912;8.380;2023-03-01T09:47:21;6.32;;;6.03;;
28086;SDS011;15392;48.912;8.380;2023-03-01T09:52:43;6.60;;;6.20;;
28086;SDS011;15392;48.912;8.380;2023-03-01T09:55:38;6.50;;;6.10;;
28086;SDS011;15392;48.912;8.380;2023-03-01T09:58:28;6.75;;;6.38;;
28086;SDS011;15392;48.912;8.380;2023-03-01T10:09:58;6.13;;;5.82;;
28086;SDS011;15392;48.912;8.380;2023-03-01T10:12:26;7.45;;;5.82;;
28086;SDS011;15392;48.912;8.380;2023-03-01T10:15:04;6.15;;;5.85;;
28086;SDS011;15392;48.912;8.380;2023-03-01T10:17:57;6.28;;;5.97;;
28086;SDS011;15392;48.912;8.380;2023-03-01T10:23:19;6.07;;;5.78;;
28086;SDS011;15392;48.912;8.380;2023-03-01T10:29:02;5.95;;;5.65;;
28086;SDS011;15392;48.912;8.380;2023-03-01T10:34:16;5.90;;;5.60;;
28086;SDS011;15392;48.912;8.380;2023-03-01T10:37:10;6.13;;;5.82;;
28086;SDS011;15392;48.912;8.380;2023-03-01T10:39:56;5.55;;;5.25;;
28086;SDS011;15392;48.912;8.380;2023-03-01T10:42:35;5.68;;;5.43;;
28086;SDS011;15392;48.912;8.380;2023-03-01T10:48:03;6.22;;;5.93;;
28086;SDS011;15392;48.912;8.380;2023-03-01T10:50:49;7.70;;;5.57;;
28086;SDS011;15392;48.912;8.380;2023-03-01T10:53:25;5.82;;;5.53;;
28086;SDS011;15392;48.912;8.380;2023-03-01T10:56:09;6.20;;;5.90;;
28086;SDS011;15392;48.912;8.380;2023-03-01T10:58:40;5.75;;;5.50;;
28086;SDS011;15392;48.912;8.380;2023-03-01T11:01:29;5.95;;;5.57;;
28086;SDS011;15392;48.912;8.380;2023-03-01T11:06:31;5.65;;;5.38;;
28086;SDS011;15392;48.912;8.380;2023-03-01T11:11:54;6.70;;;6.30;;
28086;SDS011;15392;48.912;8.380;2023-03-01T11:14:24;6.22;;;5.93;;
28086;SDS011;15392;48.912;8.380;2023-03-01T11:16:59;6.78;;;6.47;;
28086;SDS011;15392;48.912;8.380;2023-03-01T11:19:31;6.22;;;5.80;;
28086;SDS011;15392;48.912;8.380;2023-03-01T11:21:59;7.53;;;6.93;;
28086;SDS011;15392;48.912;8.380;2023-03-01T11:24:37;6.25;;;5.95;;
28086;SDS011;15392;48.912;8.380;2023-03-01T11:27:16;6.18;;;5.88;;
28086;SDS011;15392;48.912;8.380;2023-03-01T11:35:46;5.30;;;5.10;;
28086;SDS011;15392;48.912;8.380;2023-03-01T11:38:22;5.82;;;5.53;;
28086;SDS011;15392;48.912;8.380;2023-03-01T11:47:02;6.03;;;5.68;;
28086;SDS011;15392;48.912;8.380;2023-03-01T11:49:44;5.95;;;5.65;;
28086;SDS011;15392;48.912;8.380;2023-03-01T11:52:54;5.88;;;5.57;;
28086;SDS011;15392;48.912;8.380;2023-03-01T11:56:16;5.28;;;4.97;;
28086;SDS011;15392;48.912;8.380;2023-03-01T11:59:12;5.80;;;5.50;;
28086;SDS011;15392;48.912;8.380;2023-03-01T12:08:14;5.22;;;4.93;;
28086;SDS011;15392;48.912;8.380;2023-03-01T12:11:01;5.25;;;4.95;;
28086;SDS011;15392;48.912;8.380;2023-03-01T12:13:42;5.78;;;5.47;;
28086;SDS011;15392;48.912;8.380;2023-03-01T12:25:15;5.78;;;5.47;;
28086;SDS011;15392;48.912;8.380;2023-03-01T12:30:50;5.72;;;5.43;;
28086;SDS011;15392;48.912;8.380;2023-03-01T12:36:38;5.53;;;5.22;;
28086;SDS011;15392;48.912;8.380;2023-03-01T12:39:24;5.07;;;4.88;;
28086;SDS011;15392;48.912;8.380;2023-03-01T12:50:41;5.90;;;5.60;;
28086;SDS011;15392;48.912;8.380;2023-03-01T12:53:17;5.63;;;5.32;;
28086;SDS011;15392;48.912;8.380;2023-03-01T12:55:52;5.60;;;5.30;;
28086;SDS011;15392;48.912;8.380;2023-03-01T12:58:25;5.47;;;5.28;;
28086;SDS011;15392;48.912;8.380;2023-03-01T13:09:28;5.47;;;5.18;;
28086;SDS011;15392;48.912;8.380;2023-03-01T13:12:02;6.00;;;5.70;;
28086;SDS011;15392;48.912;8.380;2023-03-01T13:16:57;5.95;;;5.65;;
28086;SDS011;15392;48.912;8.380;2023-03-01T13:19:26;5.60;;;5.30;;
28086;SDS011;15392;48.912;8.380;2023-03-01T13:21:55;6.07;;;5.78;;
28086;SDS011;15392;48.912;8.380;2023-03-01T13:29:49;6.05;;;5.75;;
28086;SDS011;15392;48.912;8.380;2023-03-01T13:34:59;6.22;;;5.93;;
28086;SDS011;15392;48.912;8.380;2023-03-01T13:37:51;6.30;;;6.00;;
28086;SDS011;15392;48.912;8.380;2023-03-01T13:42:48;5.65;;;5.38;;
28086;SDS011;15392;48.912;8.380;2023-03-01T13:47:52;6.15;;;5.85;;
28086;SDS011;15392;48.912;8.380;2023-03-01T13:50:48;5.95;;;5.65;;
28086;SDS011;15392;48.912;8.380;2023-03-01T13:53:26;5.75;;;5.45;;
28086;SDS011;15392;48.912;8.380;2023-03-01T13:56:00;5.45;;;5.15;;
28086;SDS011;15392;48.912;8.380;2023-03-01T13:58:33;5.50;;;5.22;;
28086;SDS011;15392;48.912;8.380;2023-03-01T14:01:25;5.75;;;5.45;;
28086;SDS011;15392;48.912;8.380;2023-03-01T14:03:54;5.45;;;5.20;;
28086;SDS011;15392;48.912;8.380;2023-03-01T14:06:23;6.10;;;5.80;;
28086;SDS011;15392;48.912;8.380;2023-03-01T14:08:59;6.13;;;5.82;;
28086;SDS011;15392;48.912;8.380;2023-03-01T14:20:25;5.15;;;4.95;;
28086;SDS011;15392;48.912;8.380;2023-03-01T14:22:55;5.43;;;5.15;;
28086;SDS011;15392;48.912;8.380;2023-03-01T14:25:29;5.68;;;5.38;;
28086;SDS011;15392;48.912;8.380;2023-03-01T14:28:02;5.30;;;5.00;;
28086;SDS011;15392;48.912;8.380;2023-03-01T14:30:43;5.25;;;5.05;;
28086;SDS011;15392;48.912;8.380;2023-03-01T14:33:22;5.18;;;4.97;;
28086;SDS011;15392;48.912;8.380;2023-03-01T14:38:30;5.78;;;5.47;;
28086;SDS011;15392;48.912;8.380;2023-03-01T14:41:06;5.40;;;5.10;;
28086;SDS011;15392;48.912;8.380;2023-03-01T14:43:34;5.47;;;5.17;;
28086;SDS011;15392;48.912;8.380;2023-03-01T14:46:03;5.53;;;5.22;;
28086;SDS011;15392;48.912;8.380;2023-03-01T14:48:28;5.50;;;5.30;;
28086;SDS011;15392;48.912;8.380;2023-03-01T14:50:56;5.40;;;5.20;;
28086;SDS011;15392;48.912;8.380;2023-03-01T14:53:24;5.35;;;5.15;;
28086;SDS011;15392;48.912;8.380;2023-03-01T14:55:56;6.18;;;5.78;;
28086;SDS011;15392;48.912;8.380;2023-03-01T14:58:31;5.05;;;4.85;;
28086;SDS011;15392;48.912;8.380;2023-03-01T15:01:02;5.65;;;5.35;;
28086;SDS011;15392;48.912;8.380;2023-03-01T15:03:34;5.00;;;4.72;;
28086;SDS011;15392;48.912;8.380;2023-03-01T15:06:04;5.20;;;4.90;;
28086;SDS011;15392;48.912;8.380;2023-03-01T15:08:32;5.63;;;5.32;;
28086;SDS011;15392;48.912;8.380;2023-03-01T15:11:02;4.97;;;4.68;;
28086;SDS011;15392;48.912;8.380;2023-03-01T15:13:43;5.22;;;4.93;;
28086;SDS011;15392;48.912;8.380;2023-03-01T15:16:12;5.50;;;5.20;;
28086;SDS011;15392;48.912;8.380;2023-03-01T15:18:43;5.43;;;5.18;;
28086;SDS011;15392;48.912;8.380;2023-03-01T15:21:23;5.25;;;5.05;;
28086;SDS011;15392;48.912;8.380;2023-03-01T15:24:36;5.10;;;4.90;;
28086;SDS011;15392;48.912;8.380;2023-03-01T15:26:53;4.95;;;4.65;;
28086;SDS011;15392;48.912;8.380;2023-03-01T15:29:31;4.60;;;4.40;;
28086;SDS011;15392;48.912;8.380;2023-03-01T15:32:06;5.22;;;5.03;;
28086;SDS011;15392;48.912;8.380;2023-03-01T15:34:57;4.53;;;4.32;;
28086;SDS011;15392;48.912;8.380;2023-03-01T15:40:32;5.60;;;5.30;;
28086;SDS011;15392;48.912;8.380;2023-03-01T15:42:58;5.22;;;5.03;;
28086;SDS011;15392;48.912;8.380;2023-03-01T15:45:27;5.35;;;5.05;;
28086;SDS011;15392;48.912;8.380;2023-03-01T15:47:58;5.05;;;4.85;;
28086;SDS011;15392;48.912;8.380;2023-03-01T15:50:32;4.80;;;4.60;;
28086;SDS011;15392;48.912;8.380;2023-03-01T15:53:00;5.75;;;5.35;;
28086;SDS011;15392;48.912;8.380;2023-03-01T15:55:36;5.10;;;4.90;;
28086;SDS011;15392;48.912;8.380;2023-03-01T15:58:09;5.25;;;4.95;;
28086;SDS011;15392;48.912;8.380;2023-03-01T16:00:41;5.47;;;5.18;;
28086;SDS011;15392;48.912;8.380;2023-03-01T16:03:08;5.30;;;5.03;;
28086;SDS011;15392;48.912;8.380;2023-03-01T16:05:37;5.05;;;4.85;;
28086;SDS011;15392;48.912;8.380;2023-03-01T16:08:04;5.13;;;4.85;;
28086;SDS011;15392;48.912;8.380;2023-03-01T16:10:31;5.65;;;5.40;;
28086;SDS011;15392;48.912;8.380;2023-03-01T16:12:59;5.63;;;5.32;;
28086;SDS011;15392;48.912;8.380;2023-03-01T16:15:26;5.43;;;5.22;;
28086;SDS011;15392;48.912;8.380;2023-03-01T16:20:22;4.15;;;3.95;;
28086;SDS011;15392;48.912;8.380;2023-03-01T16:22:49;4.63;;;4.43;;
28086;SDS011;15392;48.912;8.380;2023-03-01T16:25:17;5.22;;;4.97;;
28086;SDS011;15392;48.912;8.380;2023-03-01T16:27:45;4.72;;;4.53;;
28086;SDS011;15392;48.912;8.380;2023-03-01T16:30:14;5.50;;;5.20;;
28086;SDS011;15392;48.912;8.380;2023-03-01T16:32:43;5.32;;;5.03;;
28086;SDS011;15392;48.912;8.380;2023-03-01T16:35:12;5.25;;;4.95;;
28086;SDS011;15392;48.912;8.380;2023-03-01T16:37:40;5.57;;;5.28;;
28086;SDS011;15392;48.912;8.380;2023-03-01T16:40:07;5.55;;;5.25;;
28086;SDS011;15392;48.912;8.380;2023-03-01T16:42:51;5.30;;;5.10;;
28086;SDS011;15392;48.912;8.380;2023-03-01T16:45:17;5.35;;;5.05;;
28086;SDS011;15392;48.912;8.380;2023-03-01T16:47:43;5.32;;;4.93;;
28086;SDS011;15392;48.912;8.380;2023-03-01T16:50:09;4.90;;;4.70;;
28086;SDS011;15392;48.912;8.380;2023-03-01T16:52:36;4.82;;;4.60;;
28086;SDS011;15392;48.912;8.380;2023-03-01T16:55:02;5.55;;;4.93;;
28086;SDS011;15392;48.912;8.380;2023-03-01T16:57:30;4.88;;;4.65;;
28086;SDS011;15392;48.912;8.380;2023-03-01T16:59:59;4.97;;;4.72;;
28086;SDS011;15392;48.912;8.380;2023-03-01T17:02:25;5.15;;;4.85;;
28086;SDS011;15392;48.912;8.380;2023-03-01T17:04:51;5.47;;;5.18;;
28086;SDS011;15392;48.912;8.380;2023-03-01T17:07:18;5.30;;;5.10;;
28086;SDS011;15392;48.912;8.380;2023-03-01T17:09:44;4.95;;;4.75;;
28086;SDS011;15392;48.912;8.380;2023-03-01T17:12:13;5.32;;;5.07;;
28086;SDS011;15392;48.912;8.380;2023-03-01T17:14:40;5.07;;;4.88;;
28086;SDS011;15392;48.912;8.380;2023-03-01T17:17:07;5.13;;;4.93;;